Time,TemperatureF,DewpointF,PressureIn,WindDirection,WindDirectionDegrees,WindSpeedMPH,WindSpeedGustMPH,Humidity,HourlyPrecipIn,Conditions,Clouds,dailyrainin,SoftwareType,DateUTC
2013-11-06 00:03:00,33.1,30.7,30.03,North,0,0.0,0.0,91,0.00,,,0.00,WUHU21623XXSP,2013-11-06 06:03:00,
2013-11-06 00:09:00,33.1,30.7,30.04,North,0,0.0,0.0,91,0.00,,,0.00,WUHU21623XXSP,2013-11-06 06:09:00,
2013-11-06 00:14:00,33.1,30.7,30.03,North,0,0.0,0.0,91,0.00,,,0.00,WUHU21623XXSP,2013-11-06 06:14:00,
2013-11-06 00:19:00,33.1,30.7,30.04,North,0,0.0,0.0,91,0.00,,,0.00,WUHU21623XXSP,2013-11-06 06:19:00,
2013-11-06 00:24:00,33.1,30.7,30.04,North,0,0.0,0.0,91,0.00,,,0.00,WUHU21623XXSP,2013-11-06 06:24:00,
2013-11-06 00:29:00,33.1,30.7,30.04,North,0,0.0,0.0,91,0.00,,,0.00,WUHU21623XXSP,2013-11-06 06:29:00,
2013-11-06 00:34:00,33.1,30.7,30.04,North,0,0.0,0.0,91,0.00,,,0.00,WUHU21623XXSP,2013-11-06 06:34:00,
2013-11-06 00:39:00,33.1,30.7,30.04,North,0,0.0,0.0,91,0.00,,,0.00,WUHU21623XXSP,2013-11-06 06:39:00,
2013-11-06 00:44:00,33.1,30.7,30.04,North,0,0.0,0.0,91,0.00,,,0.00,WUHU21623XXSP,2013-11-06 06:44:00,
2013-11-06 00:49:00,33.1,30.7,30.04,North,0,0.0,0.0,91,0.00,,,0.00,WUHU21623XXSP,2013-11-06 06:49:00,
2013-11-06 00:54:00,33.1,30.7,30.04,North,0,0.0,0.0,91,0.00,,,0.00,WUHU21623XXSP,2013-11-06 06:54:00,
2013-11-06 00:59:00,33.1,30.7,30.04,North,0,0.0,0.0,91,0.00,,,0.00,WUHU21623XXSP,2013-11-06 06:59:00,
2013-11-06 01:04:00,33.1,30.7,30.04,North,0,0.0,0.0,91,0.00,,,0.00,WUHU21623XXSP,2013-11-06 07:04:00,
2013-11-06 01:09:00,33.1,30.7,30.04,North,0,0.0,0.0,91,0.00,,,0.00,WUHU21623XXSP,2013-11-06 07:09:00,
2013-11-06 01:14:00,32.9,30.5,30.05,North,0,0.0,0.0,91,0.00,,,0.00,WUHU21623XXSP,2013-11-06 07:14:00,
2013-11-06 01:19:00,32.7,30.4,30.05,North,0,0.0,0.0,91,0.00,,,0.00,WUHU21623XXSP,2013-11-06 07:19:00,
2013-11-06 01:24:00,32.7,30.4,30.05,North,0,0.0,0.0,91,0.00,,,0.00,WUHU21623XXSP,2013-11-06 07:24:00,
2013-11-06 01:29:00,32.7,30.4,30.05,North,0,0.0,0.0,91,0.00,,,0.00,WUHU21623XXSP,2013-11-06 07:29:00,
2013-11-06 01:34:00,32.7,30.4,30.05,North,0,0.0,0.0,91,0.00,,,0.00,WUHU21623XXSP,2013-11-06 07:34:00,
2013-11-06 01:39:00,32.5,30.2,30.05,North,0,0.0,0.0,91,0.00,,,0.00,WUHU21623XXSP,2013-11-06 07:39:00,
2013-11-06 01:45:00,32.5,30.2,30.04,North,0,0.0,0.0,91,0.00,,,0.00,WUHU21623XXSP,2013-11-06 07:45:00,
2013-11-06 01:50:00,32.5,30.2,30.05,North,0,0.0,0.0,91,0.00,,,0.00,WUHU21623XXSP,2013-11-06 07:50:00,
2013-11-06 01:55:00,32.4,30.1,30.04,North,0,0.0,0.0,91,0.00,,,0.00,WUHU21623XXSP,2013-11-06 07:55:00,
2013-11-06 02:00:00,32.4,30.1,30.05,North,0,0.0,0.0,91,0.00,,,0.00,WUHU21623XXSP,2013-11-06 08:00:00,
2013-11-06 02:05:00,32.4,30.1,30.04,North,0,0.0,0.0,91,0.00,,,0.00,WUHU21623XXSP,2013-11-06 08:05:00,
2013-11-06 02:10:00,32.4,30.1,30.03,North,0,0.0,0.0,91,0.00,,,0.00,WUHU21623XXSP,2013-11-06 08:10:00,
2013-11-06 02:15:00,32.2,29.9,30.04,North,0,0.0,0.0,91,0.00,,,0.00,WUHU21623XXSP,2013-11-06 08:15:00,
2013-11-06 02:20:00,32.2,29.9,30.04,North,0,0.0,0.0,91,0.00,,,0.00,WUHU21623XXSP,2013-11-06 08:20:00,
2013-11-06 02:25:00,32.2,29.9,30.04,North,0,0.0,0.0,91,0.00,,,0.00,WUHU21623XXSP,2013-11-06 08:25:00,
2013-11-06 02:30:00,32.2,29.9,30.05,North,0,0.0,0.0,91,0.00,,,0.00,WUHU21623XXSP,2013-11-06 08:30:00,
2013-11-06 02:35:00,32.2,29.9,30.06,North,0,0.0,0.0,91,0.00,,,0.00,WUHU21623XXSP,2013-11-06 08:35:00,
2013-11-06 02:40:00,32.2,29.9,30.05,North,0,0.0,0.0,91,0.00,,,0.00,WUHU21623XXSP,2013-11-06 08:40:00,
2013-11-06 02:45:00,32.2,29.9,30.05,North,0,0.0,0.0,91,0.00,,,0.00,WUHU21623XXSP,2013-11-06 08:45:00,
2013-11-06 02:50:00,32.2,29.6,30.06,North,0,0.0,0.0,90,0.00,,,0.00,WUHU21623XXSP,2013-11-06 08:50:00,
2013-11-06 02:55:00,32.2,29.9,30.06,North,0,0.0,0.0,91,0.00,,,0.00,WUHU21623XXSP,2013-11-06 08:55:00,
2013-11-06 03:00:00,31.8,29.3,30.06,North,0,0.0,0.0,90,0.00,,,0.00,WUHU21623XXSP,2013-11-06 09:00:00,
2013-11-06 03:05:00,31.8,29.3,30.06,North,0,0.0,0.0,90,0.00,,,0.00,WUHU21623XXSP,2013-11-06 09:05:00,
2013-11-06 03:10:00,31.8,29.3,30.06,North,0,0.0,0.0,90,0.00,,,0.00,WUHU21623XXSP,2013-11-06 09:10:00,
2013-11-06 03:15:00,31.8,29.3,30.06,North,0,0.0,0.0,90,0.00,,,0.00,WUHU21623XXSP,2013-11-06 09:15:00,
2013-11-06 03:20:00,31.8,29.3,30.05,North,0,0.0,0.0,90,0.00,,,0.00,WUHU21623XXSP,2013-11-06 09:20:00,
2013-11-06 03:25:00,31.8,29.3,30.05,North,0,0.0,0.0,90,0.00,,,0.00,WUHU21623XXSP,2013-11-06 09:25:00,
2013-11-06 03:30:00,31.8,29.3,30.06,North,0,0.0,0.0,90,0.00,,,0.00,WUHU21623XXSP,2013-11-06 09:30:00,
2013-11-06 03:35:00,31.6,29.1,30.06,North,0,0.0,0.0,90,0.00,,,0.00,WUHU21623XXSP,2013-11-06 09:35:00,
2013-11-06 03:40:00,31.6,29.4,30.05,North,0,0.0,0.0,91,0.00,,,0.00,WUHU21623XXSP,2013-11-06 09:40:00,
2013-11-06 03:45:00,31.6,29.4,30.06,North,0,0.0,0.0,91,0.00,,,0.00,WUHU21623XXSP,2013-11-06 09:45:00,
2013-11-06 03:50:00,31.8,29.6,30.06,North,0,0.0,0.0,91,0.00,,,0.00,WUHU21623XXSP,2013-11-06 09:50:00,
2013-11-06 03:55:00,31.8,29.6,30.05,North,0,0.0,0.0,91,0.00,,,0.00,WUHU21623XXSP,2013-11-06 09:55:00,
2013-11-06 04:01:00,31.6,29.4,30.05,North,0,0.0,0.0,91,0.00,,,0.00,WUHU21623XXSP,2013-11-06 10:01:00,
2013-11-06 04:09:00,31.6,29.4,30.05,North,0,0.0,0.0,91,0.00,,,0.00,WUHU21623XXSP,2013-11-06 10:09:00,
2013-11-06 04:14:00,31.6,29.4,30.04,North,0,0.0,0.0,91,0.00,,,0.00,WUHU21623XXSP,2013-11-06 10:14:00,
2013-11-06 04:19:00,31.6,29.4,30.04,North,0,0.0,0.0,91,0.00,,,0.00,WUHU21623XXSP,2013-11-06 10:19:00,
2013-11-06 04:24:00,31.6,29.4,30.04,North,0,0.0,0.0,91,0.00,,,0.00,WUHU21623XXSP,2013-11-06 10:24:00,
2013-11-06 04:29:00,31.6,29.4,30.05,North,0,0.0,0.0,91,0.00,,,0.00,WUHU21623XXSP,2013-11-06 10:29:00,
2013-11-06 04:34:00,31.6,29.4,30.05,North,0,0.0,0.0,91,0.00,,,0.00,WUHU21623XXSP,2013-11-06 10:34:00,
2013-11-06 04:39:00,31.6,29.4,30.04,North,0,0.0,0.0,91,0.00,,,0.00,WUHU21623XXSP,2013-11-06 10:39:00,
2013-11-06 04:44:00,31.6,29.4,30.04,North,0,0.0,0.0,91,0.00,,,0.00,WUHU21623XXSP,2013-11-06 10:44:00,
2013-11-06 04:49:00,31.3,29.0,30.05,North,0,0.0,0.0,91,0.00,,,0.00,WUHU21623XXSP,2013-11-06 10:49:00,
2013-11-06 04:54:00,31.6,29.1,30.04,North,0,0.0,0.0,90,0.00,,,0.00,WUHU21623XXSP,2013-11-06 10:54:00,
2013-11-06 04:59:00,31.5,28.9,30.04,North,0,0.0,0.0,90,0.00,,,0.00,WUHU21623XXSP,2013-11-06 10:59:00,
2013-11-06 05:04:00,31.5,28.9,30.04,North,0,0.0,0.0,90,0.00,,,0.00,WUHU21623XXSP,2013-11-06 11:04:00,
2013-11-06 05:09:00,31.5,28.9,30.04,North,0,0.0,0.0,90,0.00,,,0.00,WUHU21623XXSP,2013-11-06 11:09:00,
2013-11-06 05:14:00,31.3,28.8,30.04,North,0,0.0,0.0,90,0.00,,,0.00,WUHU21623XXSP,2013-11-06 11:14:00,
2013-11-06 05:19:00,31.1,28.6,30.05,North,0,0.0,0.0,90,0.00,,,0.00,WUHU21623XXSP,2013-11-06 11:19:00,
2013-11-06 05:24:00,31.1,28.6,30.05,North,0,0.0,0.0,90,0.00,,,0.00,WUHU21623XXSP,2013-11-06 11:24:00,
2013-11-06 05:29:00,30.9,28.4,30.05,North,0,0.0,0.0,90,0.00,,,0.00,WUHU21623XXSP,2013-11-06 11:29:00,
2013-11-06 05:34:00,30.9,28.4,30.05,North,0,0.0,0.0,90,0.00,,,0.00,WUHU21623XXSP,2013-11-06 11:34:00,
2013-11-06 05:39:00,30.7,28.2,30.05,North,0,0.0,0.0,90,0.00,,,0.00,WUHU21623XXSP,2013-11-06 11:39:00,
2013-11-06 05:44:00,30.7,28.2,30.05,North,0,0.0,0.0,90,0.00,,,0.00,WUHU21623XXSP,2013-11-06 11:44:00,
2013-11-06 05:49:00,30.7,28.2,30.06,North,0,0.0,0.0,90,0.00,,,0.00,WUHU21623XXSP,2013-11-06 11:49:00,
2013-11-06 05:54:00,30.7,28.2,30.05,North,0,0.0,0.0,90,0.00,,,0.00,WUHU21623XXSP,2013-11-06 11:54:00,
2013-11-06 05:59:00,30.7,28.2,30.05,North,0,0.0,0.0,90,0.00,,,0.00,WUHU21623XXSP,2013-11-06 11:59:00,
2013-11-06 06:05:00,30.6,28.0,30.05,North,0,0.0,0.0,90,0.00,,,0.00,WUHU21623XXSP,2013-11-06 12:05:00,
2013-11-06 06:10:00,30.6,28.0,30.05,North,0,0.0,0.0,90,0.00,,,0.00,WUHU21623XXSP,2013-11-06 12:10:00,
2013-11-06 06:15:00,30.4,27.9,30.05,North,0,0.0,0.0,90,0.00,,,0.00,WUHU21623XXSP,2013-11-06 12:15:00,
2013-11-06 06:20:00,30.2,27.7,30.05,North,0,0.0,0.0,90,0.00,,,0.00,WUHU21623XXSP,2013-11-06 12:20:00,
2013-11-06 06:25:00,30.2,27.7,30.05,North,0,0.0,0.0,90,0.00,,,0.00,WUHU21623XXSP,2013-11-06 12:25:00,
2013-11-06 06:30:00,30.0,27.5,30.05,North,0,0.0,0.0,90,0.00,,,0.00,WUHU21623XXSP,2013-11-06 12:30:00,
2013-11-06 06:35:00,30.2,27.7,30.05,North,0,0.0,0.0,90,0.00,,,0.00,WUHU21623XXSP,2013-11-06 12:35:00,
2013-11-06 06:40:00,30.0,27.5,30.05,North,0,0.0,0.0,90,0.00,,,0.00,WUHU21623XXSP,2013-11-06 12:40:00,
2013-11-06 06:45:00,30.0,27.5,30.05,North,0,0.0,0.0,90,0.00,,,0.00,WUHU21623XXSP,2013-11-06 12:45:00,
2013-11-06 06:50:00,30.0,27.5,30.05,North,0,0.0,0.0,90,0.00,,,0.00,WUHU21623XXSP,2013-11-06 12:50:00,
2013-11-06 06:55:00,29.8,27.3,30.05,North,0,0.0,0.0,89,0.00,,,0.00,WUHU21623XXSP,2013-11-06 12:55:00,
2013-11-06 07:00:00,29.7,26.9,30.05,North,0,0.0,0.0,89,0.00,,,0.00,WUHU21623XXSP,2013-11-06 13:00:00,
2013-11-06 07:05:00,29.5,26.7,30.05,North,0,0.0,0.0,89,0.00,,,0.00,WUHU21623XXSP,2013-11-06 13:05:00,
2013-11-06 07:10:00,29.5,26.7,30.05,North,0,0.0,0.0,89,0.00,,,0.00,WUHU21623XXSP,2013-11-06 13:10:00,
2013-11-06 07:15:00,29.5,26.7,30.06,North,0,0.0,0.0,89,0.00,,,0.00,WUHU21623XXSP,2013-11-06 13:15:00,
2013-11-06 07:20:00,29.5,26.7,30.06,North,0,0.0,0.0,89,0.00,,,0.00,WUHU21623XXSP,2013-11-06 13:20:00,
2013-11-06 07:25:00,29.3,26.5,30.06,North,0,0.0,0.0,89,0.00,,,0.00,WUHU21623XXSP,2013-11-06 13:25:00,
2013-11-06 07:30:00,29.3,26.5,30.06,North,0,0.0,0.0,89,0.00,,,0.00,WUHU21623XXSP,2013-11-06 13:30:00,
2013-11-06 07:35:00,29.1,26.3,30.06,North,0,0.0,0.0,89,0.00,,,0.00,WUHU21623XXSP,2013-11-06 13:35:00,
2013-11-06 07:40:00,29.1,26.3,30.06,North,0,0.0,0.0,89,0.00,,,0.00,WUHU21623XXSP,2013-11-06 13:40:00,
2013-11-06 07:45:00,29.1,26.3,30.06,North,0,0.0,0.0,89,0.00,,,0.00,WUHU21623XXSP,2013-11-06 13:45:00,
2013-11-06 07:50:00,29.3,26.2,30.06,North,0,0.0,0.0,88,0.00,,,0.00,WUHU21623XXSP,2013-11-06 13:50:00,
2013-11-06 07:55:00,29.3,26.2,30.07,North,0,0.0,0.0,88,0.00,,,0.00,WUHU21623XXSP,2013-11-06 13:55:00,
2013-11-06 08:00:00,29.3,26.2,30.07,North,0,0.0,0.0,88,0.00,,,0.00,WUHU21623XXSP,2013-11-06 14:00:00,
2013-11-06 08:05:00,29.3,26.2,30.07,North,0,0.0,0.0,88,0.00,,,0.00,WUHU21623XXSP,2013-11-06 14:05:00,
2013-11-06 08:10:00,29.1,26.0,30.07,North,0,0.0,0.0,88,0.00,,,0.00,WUHU21623XXSP,2013-11-06 14:10:00,
2013-11-06 08:15:00,29.3,25.9,30.07,North,0,0.0,0.0,87,0.00,,,0.00,WUHU21623XXSP,2013-11-06 14:15:00,
2013-11-06 08:20:00,29.5,26.1,30.07,North,0,0.0,0.0,87,0.00,,,0.00,WUHU21623XXSP,2013-11-06 14:20:00,
2013-11-06 08:25:00,29.5,26.1,30.08,North,0,0.0,0.0,87,0.00,,,0.00,WUHU21623XXSP,2013-11-06 14:25:00,
2013-11-06 08:31:00,29.7,26.3,30.08,North,0,0.0,0.0,87,0.00,,,0.00,WUHU21623XXSP,2013-11-06 14:31:00,
2013-11-06 08:35:00,29.8,26.5,30.08,North,0,0.0,0.0,87,0.00,,,0.00,WUHU21623XXSP,2013-11-06 14:35:00,
2013-11-06 08:41:00,29.8,26.5,30.08,North,0,0.0,0.0,87,0.00,,,0.00,WUHU21623XXSP,2013-11-06 14:41:00,
2013-11-06 08:46:00,30.0,26.6,30.08,North,0,0.0,0.0,87,0.00,,,0.00,WUHU21623XXSP,2013-11-06 14:46:00,
2013-11-06 08:51:00,30.0,26.3,30.09,North,0,0.0,0.0,86,0.00,,,0.00,WUHU21623XXSP,2013-11-06 14:51:00,
2013-11-06 08:56:00,30.0,26.3,30.09,North,0,0.0,0.0,86,0.00,,,0.00,WUHU21623XXSP,2013-11-06 14:56:00,
2013-11-06 09:01:00,30.2,26.5,30.09,North,0,0.0,0.0,86,0.00,,,0.00,WUHU21623XXSP,2013-11-06 15:01:00,
2013-11-06 09:06:00,30.2,26.2,30.09,North,0,0.0,0.0,85,0.00,,,0.00,WUHU21623XXSP,2013-11-06 15:06:00,
2013-11-06 09:11:00,30.2,26.2,30.09,North,0,0.0,0.0,85,0.00,,,0.00,WUHU21623XXSP,2013-11-06 15:11:00,
2013-11-06 09:16:00,30.4,26.4,30.09,North,0,0.0,0.0,85,0.00,,,0.00,WUHU21623XXSP,2013-11-06 15:16:00,
2013-11-06 09:21:00,30.4,26.1,30.09,North,0,0.0,0.0,84,0.00,,,0.00,WUHU21623XXSP,2013-11-06 15:21:00,
2013-11-06 09:26:00,30.4,25.8,30.09,North,0,0.0,0.0,83,0.00,,,0.00,WUHU21623XXSP,2013-11-06 15:26:00,
2013-11-06 09:31:00,30.4,25.8,30.09,North,0,0.0,0.0,83,0.00,,,0.00,WUHU21623XXSP,2013-11-06 15:31:00,
2013-11-06 09:36:00,30.6,26.0,30.09,North,0,0.0,0.0,83,0.00,,,0.00,WUHU21623XXSP,2013-11-06 15:36:00,
2013-11-06 09:41:00,30.7,26.2,30.09,North,0,0.0,0.0,83,0.00,,,0.00,WUHU21623XXSP,2013-11-06 15:41:00,
2013-11-06 09:46:00,30.7,26.2,30.09,North,0,0.0,0.0,83,0.00,,,0.00,WUHU21623XXSP,2013-11-06 15:46:00,
2013-11-06 09:51:00,30.9,26.4,30.09,North,0,0.0,0.0,83,0.00,,,0.00,WUHU21623XXSP,2013-11-06 15:51:00,
2013-11-06 09:56:00,30.9,26.1,30.09,North,0,0.0,0.0,82,0.00,,,0.00,WUHU21623XXSP,2013-11-06 15:56:00,
2013-11-06 10:01:00,30.9,26.1,30.10,North,0,0.0,0.0,82,0.00,,,0.00,WUHU21623XXSP,2013-11-06 16:01:00,
2013-11-06 10:06:00,30.9,25.8,30.09,North,0,0.0,0.0,81,0.00,,,0.00,WUHU21623XXSP,2013-11-06 16:06:00,
2013-11-06 10:11:00,31.1,26.0,30.09,North,0,0.0,0.0,81,0.00,,,0.00,WUHU21623XXSP,2013-11-06 16:11:00,
2013-11-06 10:16:00,31.3,26.2,30.09,North,0,0.0,0.0,81,0.00,,,0.00,WUHU21623XXSP,2013-11-06 16:16:00,
2013-11-06 10:21:00,31.3,26.2,30.10,North,0,0.0,0.0,81,0.00,,,0.00,WUHU21623XXSP,2013-11-06 16:21:00,
2013-11-06 10:26:00,31.6,26.5,30.10,North,0,0.0,0.0,81,0.00,,,0.00,WUHU21623XXSP,2013-11-06 16:26:00,
2013-11-06 10:31:00,31.6,26.2,30.10,North,0,0.0,0.0,80,0.00,,,0.00,WUHU21623XXSP,2013-11-06 16:31:00,
2013-11-06 10:36:00,31.8,26.4,30.10,North,0,0.0,0.0,80,0.00,,,0.00,WUHU21623XXSP,2013-11-06 16:36:00,
2013-11-06 10:42:00,31.8,26.1,30.10,North,0,0.0,0.0,79,0.00,,,0.00,WUHU21623XXSP,2013-11-06 16:42:00,
2013-11-06 10:47:00,32.2,26.4,30.11,North,0,0.0,0.0,79,0.00,,,0.00,WUHU21623XXSP,2013-11-06 16:47:00,
2013-11-06 10:52:00,32.2,26.4,30.11,North,0,0.0,0.0,79,0.00,,,0.00,WUHU21623XXSP,2013-11-06 16:52:00,
2013-11-06 10:57:00,32.2,26.4,30.11,North,0,0.0,0.0,79,0.00,,,0.00,WUHU21623XXSP,2013-11-06 16:57:00,
2013-11-06 11:02:00,32.2,26.4,30.11,North,0,0.0,0.0,79,0.00,,,0.00,WUHU21623XXSP,2013-11-06 17:02:00,
2013-11-06 11:07:00,32.4,26.6,30.11,North,0,0.0,0.0,79,0.00,,,0.00,WUHU21623XXSP,2013-11-06 17:07:00,
2013-11-06 11:12:00,32.5,26.4,30.11,North,0,0.0,0.0,78,0.00,,,0.00,WUHU21623XXSP,2013-11-06 17:12:00,
2013-11-06 11:17:00,32.4,26.6,30.11,North,0,0.0,0.0,79,0.00,,,0.00,WUHU21623XXSP,2013-11-06 17:17:00,
2013-11-06 11:22:00,32.4,26.3,30.11,North,0,0.0,0.0,78,0.00,,,0.00,WUHU21623XXSP,2013-11-06 17:22:00,
2013-11-06 11:27:00,32.5,26.8,30.11,North,0,0.0,0.0,79,0.00,,,0.00,WUHU21623XXSP,2013-11-06 17:27:00,
2013-11-06 11:32:00,32.5,26.1,30.11,North,0,0.0,0.0,77,0.00,,,0.00,WUHU21623XXSP,2013-11-06 17:32:00,
2013-11-06 11:37:00,32.4,26.1,30.12,North,0,0.0,0.0,77,0.00,,,0.00,WUHU21623XXSP,2013-11-06 17:37:00,
2013-11-06 11:42:00,32.4,25.6,30.12,North,0,0.0,0.0,76,0.00,,,0.00,WUHU21623XXSP,2013-11-06 17:42:00,
2013-11-06 11:47:00,32.5,25.8,30.12,North,0,0.0,0.0,76,0.00,,,0.00,WUHU21623XXSP,2013-11-06 17:47:00,
2013-11-06 11:52:00,32.5,25.8,30.12,North,0,0.0,0.0,76,0.00,,,0.00,WUHU21623XXSP,2013-11-06 17:52:00,
2013-11-06 11:57:00,32.7,26.0,30.12,North,0,0.0,0.0,76,0.00,,,0.00,WUHU21623XXSP,2013-11-06 17:57:00,
2013-11-06 12:02:00,32.9,26.1,30.12,North,0,0.0,0.0,76,0.00,,,0.00,WUHU21623XXSP,2013-11-06 18:02:00,
2013-11-06 12:07:00,33.1,26.0,30.12,North,0,0.0,0.0,75,0.00,,,0.00,WUHU21623XXSP,2013-11-06 18:07:00,
2013-11-06 12:12:00,33.1,26.0,30.11,North,0,0.0,0.0,75,0.00,,,0.00,WUHU21623XXSP,2013-11-06 18:12:00,
2013-11-06 12:17:00,33.3,26.1,30.12,North,0,0.0,0.0,75,0.00,,,0.00,WUHU21623XXSP,2013-11-06 18:17:00,
2013-11-06 12:22:00,33.4,26.3,30.12,North,0,0.0,0.0,75,0.00,,,0.00,WUHU21623XXSP,2013-11-06 18:22:00,
2013-11-06 12:27:00,33.6,26.4,30.11,North,0,0.0,0.0,75,0.00,,,0.00,WUHU21623XXSP,2013-11-06 18:27:00,
2013-11-06 12:32:00,33.6,26.1,30.11,North,0,0.0,0.0,74,0.00,,,0.00,WUHU21623XXSP,2013-11-06 18:32:00,
2013-11-06 12:37:00,34.0,26.5,30.12,North,0,0.0,0.0,74,0.00,,,0.00,WUHU21623XXSP,2013-11-06 18:37:00,
2013-11-06 12:42:00,34.2,26.6,30.11,North,0,0.0,0.0,74,0.00,,,0.00,WUHU21623XXSP,2013-11-06 18:42:00,
2013-11-06 12:47:00,34.2,26.6,30.11,North,0,0.0,0.0,74,0.00,,,0.00,WUHU21623XXSP,2013-11-06 18:47:00,
2013-11-06 12:52:00,34.3,26.5,30.11,North,0,0.0,0.0,73,0.00,,,0.00,WUHU21623XXSP,2013-11-06 18:52:00,
2013-11-06 12:57:00,34.3,26.5,30.11,North,0,0.0,0.0,73,0.00,,,0.00,WUHU21623XXSP,2013-11-06 18:57:00,
2013-11-06 13:02:00,34.5,26.7,30.11,North,0,0.0,0.0,73,0.00,,,0.00,WUHU21623XXSP,2013-11-06 19:02:00,
2013-11-06 13:07:00,34.7,26.9,30.11,North,0,0.0,0.0,73,0.00,,,0.00,WUHU21623XXSP,2013-11-06 19:07:00,
2013-11-06 13:12:00,34.7,26.5,30.11,North,0,0.0,0.0,72,0.00,,,0.00,WUHU21623XXSP,2013-11-06 19:12:00,
2013-11-06 13:17:00,34.9,26.7,30.11,North,0,0.0,0.0,72,0.00,,,0.00,WUHU21623XXSP,2013-11-06 19:17:00,
2013-11-06 13:22:00,34.9,26.7,30.12,North,0,0.0,0.0,72,0.00,,,0.00,WUHU21623XXSP,2013-11-06 19:22:00,
2013-11-06 13:28:00,35.2,27.1,30.12,North,0,0.0,0.0,72,0.00,,,0.00,WUHU21623XXSP,2013-11-06 19:28:00,
2013-11-06 13:33:00,35.2,27.1,30.12,North,0,0.0,0.0,72,0.00,,,0.00,WUHU21623XXSP,2013-11-06 19:33:00,
2013-11-06 13:38:00,35.4,27.6,30.12,North,0,0.0,0.0,73,0.00,,,0.00,WUHU21623XXSP,2013-11-06 19:38:00,
2013-11-06 13:43:00,35.4,27.6,30.11,North,0,0.0,0.0,73,0.00,,,0.00,WUHU21623XXSP,2013-11-06 19:43:00,
2013-11-06 13:48:00,35.6,27.8,30.12,North,0,0.0,0.0,73,0.00,,,0.00,WUHU21623XXSP,2013-11-06 19:48:00,
2013-11-06 13:53:00,35.8,27.9,30.12,North,0,0.0,0.0,73,0.00,,,0.00,WUHU21623XXSP,2013-11-06 19:53:00,
2013-11-06 13:58:00,35.8,27.9,30.12,North,0,0.0,0.0,73,0.00,,,0.00,WUHU21623XXSP,2013-11-06 19:58:00,
2013-11-06 14:03:00,35.8,27.9,30.12,North,0,0.0,0.0,73,0.00,,,0.00,WUHU21623XXSP,2013-11-06 20:03:00,
2013-11-06 14:08:00,36.0,28.1,30.12,North,0,0.0,0.0,73,0.00,,,0.00,WUHU21623XXSP,2013-11-06 20:08:00,
2013-11-06 14:13:00,36.0,28.1,30.12,North,0,0.0,0.0,73,0.00,,,0.00,WUHU21623XXSP,2013-11-06 20:13:00,
2013-11-06 14:18:00,36.1,28.3,30.12,North,0,0.0,0.0,73,0.00,,,0.00,WUHU21623XXSP,2013-11-06 20:18:00,
2013-11-06 14:23:00,36.1,28.6,30.13,North,0,0.0,0.0,74,0.00,,,0.00,WUHU21623XXSP,2013-11-06 20:23:00,
2013-11-06 14:28:00,36.3,28.5,30.13,North,0,0.0,0.0,73,0.00,,,0.00,WUHU21623XXSP,2013-11-06 20:28:00,
2013-11-06 14:33:00,36.3,28.8,30.13,North,0,0.0,0.0,74,0.00,,,0.00,WUHU21623XXSP,2013-11-06 20:33:00,
2013-11-06 14:38:00,36.3,28.8,30.13,North,0,0.0,0.0,74,0.00,,,0.00,WUHU21623XXSP,2013-11-06 20:38:00,
2013-11-06 14:43:00,36.5,29.0,30.13,North,0,0.0,0.0,74,0.00,,,0.00,WUHU21623XXSP,2013-11-06 20:43:00,
2013-11-06 14:48:00,36.5,29.0,30.13,North,0,0.0,0.0,74,0.00,,,0.00,WUHU21623XXSP,2013-11-06 20:48:00,
2013-11-06 14:53:00,36.3,28.8,30.13,North,0,0.0,0.0,74,0.00,,,0.00,WUHU21623XXSP,2013-11-06 20:53:00,
2013-11-06 14:58:00,36.3,29.1,30.13,North,0,0.0,0.0,75,0.00,,,0.00,WUHU21623XXSP,2013-11-06 20:58:00,
2013-11-06 15:03:00,36.3,29.1,30.13,North,0,0.0,0.0,75,0.00,,,0.00,WUHU21623XXSP,2013-11-06 21:03:00,
2013-11-06 15:08:00,36.3,29.1,30.13,North,0,0.0,0.0,75,0.00,,,0.00,WUHU21623XXSP,2013-11-06 21:08:00,
2013-11-06 15:13:00,36.3,29.1,30.13,North,0,0.0,0.0,75,0.00,,,0.00,WUHU21623XXSP,2013-11-06 21:13:00,
2013-11-06 15:18:00,36.1,28.9,30.13,North,0,0.0,0.0,75,0.00,,,0.00,WUHU21623XXSP,2013-11-06 21:18:00,
2013-11-06 15:23:00,36.1,28.9,30.14,North,0,0.0,0.0,75,0.00,,,0.00,WUHU21623XXSP,2013-11-06 21:23:00,
2013-11-06 15:28:00,36.3,29.1,30.14,North,0,0.0,0.0,75,0.00,,,0.00,WUHU21623XXSP,2013-11-06 21:28:00,
2013-11-06 15:33:00,36.5,29.3,30.14,North,0,0.0,0.0,75,0.00,,,0.00,WUHU21623XXSP,2013-11-06 21:33:00,
2013-11-06 15:38:00,36.7,29.2,30.14,North,0,0.0,0.0,74,0.00,,,0.00,WUHU21623XXSP,2013-11-06 21:38:00,
2013-11-06 15:43:00,36.7,29.2,30.14,North,0,0.0,0.0,74,0.00,,,0.00,WUHU21623XXSP,2013-11-06 21:43:00,
2013-11-06 15:48:00,36.9,29.3,30.14,North,0,0.0,0.0,74,0.00,,,0.00,WUHU21623XXSP,2013-11-06 21:48:00,
2013-11-06 15:53:00,36.7,29.2,30.14,North,0,0.0,0.0,74,0.00,,,0.00,WUHU21623XXSP,2013-11-06 21:53:00,
2013-11-06 15:58:00,36.7,29.2,30.14,North,0,0.0,0.0,74,0.00,,,0.00,WUHU21623XXSP,2013-11-06 21:58:00,
2013-11-06 16:03:00,36.5,29.0,30.14,North,0,0.0,0.0,74,0.00,,,0.00,WUHU21623XXSP,2013-11-06 22:03:00,
2013-11-06 16:08:00,36.3,28.8,30.14,North,0,0.0,0.0,74,0.00,,,0.00,WUHU21623XXSP,2013-11-06 22:08:00,
2013-11-06 16:13:00,36.0,28.4,30.14,North,0,0.0,0.0,74,0.00,,,0.00,WUHU21623XXSP,2013-11-06 22:13:00,
2013-11-06 16:18:00,35.6,28.1,30.14,North,0,0.0,0.0,74,0.00,,,0.00,WUHU21623XXSP,2013-11-06 22:18:00,
2013-11-06 16:23:00,35.4,27.9,30.14,North,0,0.0,0.0,74,0.00,,,0.00,WUHU21623XXSP,2013-11-06 22:23:00,
2013-11-06 16:29:00,35.4,27.9,30.14,North,0,0.0,0.0,74,0.00,,,0.00,WUHU21623XXSP,2013-11-06 22:29:00,
2013-11-06 16:34:00,34.9,27.7,30.14,North,0,0.0,0.0,75,0.00,,,0.00,WUHU21623XXSP,2013-11-06 22:34:00,
2013-11-06 16:39:00,34.7,27.7,30.14,North,0,0.0,0.0,75,0.00,,,0.00,WUHU21623XXSP,2013-11-06 22:39:00,
2013-11-06 16:44:00,34.5,27.3,30.14,North,0,0.0,0.0,75,0.00,,,0.00,WUHU21623XXSP,2013-11-06 22:44:00,
2013-11-06 16:49:00,34.2,27.5,30.14,North,0,0.0,0.0,76,0.00,,,0.00,WUHU21623XXSP,2013-11-06 22:49:00,
2013-11-06 16:54:00,33.8,26.9,30.14,North,0,0.0,0.0,76,0.00,,,0.00,WUHU21623XXSP,2013-11-06 22:54:00,
2013-11-06 16:59:00,33.6,26.8,30.14,North,0,0.0,0.0,76,0.00,,,0.00,WUHU21623XXSP,2013-11-06 22:59:00,
2013-11-06 17:04:00,33.4,26.6,30.14,North,0,0.0,0.0,76,0.00,,,0.00,WUHU21623XXSP,2013-11-06 23:04:00,
2013-11-06 17:09:00,33.3,26.4,30.14,North,0,0.0,0.0,76,0.00,,,0.00,WUHU21623XXSP,2013-11-06 23:09:00,
2013-11-06 17:14:00,32.9,26.1,30.14,North,0,0.0,0.0,76,0.00,,,0.00,WUHU21623XXSP,2013-11-06 23:14:00,
2013-11-06 17:19:00,32.5,25.8,30.14,North,0,0.0,0.0,76,0.00,,,0.00,WUHU21623XXSP,2013-11-06 23:19:00,
2013-11-06 17:24:00,32.2,25.8,30.14,North,0,0.0,0.0,77,0.00,,,0.00,WUHU21623XXSP,2013-11-06 23:24:00,
2013-11-06 17:29:00,31.8,25.4,30.14,North,0,0.0,0.0,77,0.00,,,0.00,WUHU21623XXSP,2013-11-06 23:29:00,
2013-11-06 17:34:00,31.8,25.4,30.14,North,0,0.0,0.0,77,0.00,,,0.00,WUHU21623XXSP,2013-11-06 23:34:00,
2013-11-06 17:39:00,31.6,25.3,30.14,North,0,0.0,0.0,77,0.00,,,0.00,WUHU21623XXSP,2013-11-06 23:39:00,
2013-11-06 17:44:00,31.3,25.2,30.14,North,0,0.0,0.0,78,0.00,,,0.00,WUHU21623XXSP,2013-11-06 23:44:00,
2013-11-06 17:49:00,31.1,25.1,30.14,North,0,0.0,0.0,78,0.00,,,0.00,WUHU21623XXSP,2013-11-06 23:49:00,
2013-11-06 17:54:00,30.9,24.9,30.14,North,0,0.0,0.0,78,0.00,,,0.00,WUHU21623XXSP,2013-11-06 23:54:00,
2013-11-06 17:59:00,30.7,24.7,30.14,North,0,0.0,0.0,78,0.00,,,0.00,WUHU21623XXSP,2013-11-06 23:59:00,
2013-11-06 18:04:00,30.7,25.0,30.15,North,0,0.0,0.0,79,0.00,,,0.00,WUHU21623XXSP,2013-11-07 00:04:00,
2013-11-06 18:09:00,30.6,24.8,30.15,North,0,0.0,0.0,79,0.00,,,0.00,WUHU21623XXSP,2013-11-07 00:09:00,
2013-11-06 18:14:00,30.6,24.8,30.15,North,0,0.0,0.0,79,0.00,,,0.00,WUHU21623XXSP,2013-11-07 00:14:00,
2013-11-06 18:19:00,30.4,24.7,30.15,North,0,0.0,0.0,79,0.00,,,0.00,WUHU21623XXSP,2013-11-07 00:19:00,
2013-11-06 18:24:00,30.2,24.5,30.15,North,0,0.0,0.0,79,0.00,,,0.00,WUHU21623XXSP,2013-11-07 00:24:00,
2013-11-06 18:29:00,30.2,24.5,30.16,North,0,0.0,0.0,79,0.00,,,0.00,WUHU21623XXSP,2013-11-07 00:29:00,
2013-11-06 18:34:00,30.0,24.3,30.16,North,0,0.0,0.0,79,0.00,,,0.00,WUHU21623XXSP,2013-11-07 00:34:00,
2013-11-06 18:39:00,30.0,24.3,30.16,North,0,0.0,0.0,79,0.00,,,0.00,WUHU21623XXSP,2013-11-07 00:39:00,
2013-11-06 18:44:00,29.8,24.1,30.16,North,0,0.0,0.0,79,0.00,,,0.00,WUHU21623XXSP,2013-11-07 00:44:00,
2013-11-06 18:49:00,29.8,24.1,30.15,North,0,0.0,0.0,79,0.00,,,0.00,WUHU21623XXSP,2013-11-07 00:49:00,
2013-11-06 18:54:00,29.8,24.1,30.15,North,0,0.0,0.0,79,0.00,,,0.00,WUHU21623XXSP,2013-11-07 00:54:00,
2013-11-06 18:59:00,29.8,24.1,30.15,North,0,0.0,0.0,79,0.00,,,0.00,WUHU21623XXSP,2013-11-07 00:59:00,
2013-11-06 19:04:00,29.8,24.4,30.15,North,0,0.0,0.0,80,0.00,,,0.00,WUHU21623XXSP,2013-11-07 01:04:00,
2013-11-06 19:09:00,30.0,24.6,30.16,North,0,0.0,0.0,80,0.00,,,0.00,WUHU21623XXSP,2013-11-07 01:09:00,
2013-11-06 19:14:00,30.0,24.6,30.15,North,0,0.0,0.0,80,0.00,,,0.00,WUHU21623XXSP,2013-11-07 01:14:00,
2013-11-06 19:19:00,30.2,24.8,30.15,North,0,0.0,0.0,80,0.00,,,0.00,WUHU21623XXSP,2013-11-07 01:19:00,
2013-11-06 19:24:00,30.4,25.0,30.16,North,0,0.0,0.0,80,0.00,,,0.00,WUHU21623XXSP,2013-11-07 01:24:00,
2013-11-06 19:29:00,30.4,25.0,30.15,North,0,0.0,0.0,80,0.00,,,0.00,WUHU21623XXSP,2013-11-07 01:29:00,
2013-11-06 19:34:00,30.6,25.2,30.15,North,0,0.0,0.0,80,0.00,,,0.00,WUHU21623XXSP,2013-11-07 01:34:00,
2013-11-06 19:39:00,30.6,25.2,30.15,North,0,0.0,0.0,80,0.00,,,0.00,WUHU21623XXSP,2013-11-07 01:39:00,
2013-11-06 19:44:00,30.7,25.3,30.15,North,0,0.0,0.0,80,0.00,,,0.00,WUHU21623XXSP,2013-11-07 01:44:00,
2013-11-06 19:49:00,30.7,25.3,30.15,North,0,0.0,0.0,80,0.00,,,0.00,WUHU21623XXSP,2013-11-07 01:49:00,
2013-11-06 19:54:00,30.9,25.5,30.16,North,0,0.0,0.0,80,0.00,,,0.00,WUHU21623XXSP,2013-11-07 01:54:00,
2013-11-06 19:59:00,31.1,25.7,30.15,North,0,0.0,0.0,80,0.00,,,0.00,WUHU21623XXSP,2013-11-07 01:59:00,
2013-11-06 20:04:00,31.3,25.9,30.15,North,0,0.0,0.0,80,0.00,,,0.00,WUHU21623XXSP,2013-11-07 02:04:00,
2013-11-06 20:09:00,31.3,25.9,30.16,North,0,0.0,0.0,80,0.00,,,0.00,WUHU21623XXSP,2013-11-07 02:09:00,
2013-11-06 20:14:00,31.6,26.2,30.15,North,0,0.0,0.0,80,0.00,,,0.00,WUHU21623XXSP,2013-11-07 02:14:00,
2013-11-06 20:19:00,31.6,26.2,30.15,North,0,0.0,0.0,80,0.00,,,0.00,WUHU21623XXSP,2013-11-07 02:19:00,
2013-11-06 20:24:00,31.6,26.2,30.15,North,0,0.0,0.0,80,0.00,,,0.00,WUHU21623XXSP,2013-11-07 02:24:00,
2013-11-06 20:29:00,31.6,26.2,30.16,North,0,0.0,0.0,80,0.00,,,0.00,WUHU21623XXSP,2013-11-07 02:29:00,
2013-11-06 20:34:00,31.6,26.2,30.15,North,0,0.0,0.0,80,0.00,,,0.00,WUHU21623XXSP,2013-11-07 02:34:00,
2013-11-06 20:39:00,31.6,26.2,30.15,North,0,0.0,0.0,80,0.00,,,0.00,WUHU21623XXSP,2013-11-07 02:39:00,
2013-11-06 20:44:00,31.6,26.2,30.15,North,0,0.0,0.0,80,0.00,,,0.00,WUHU21623XXSP,2013-11-07 02:44:00,
2013-11-06 20:49:00,31.6,26.2,30.15,North,0,0.0,0.0,80,0.00,,,0.00,WUHU21623XXSP,2013-11-07 02:49:00,
2013-11-06 20:54:00,31.6,26.2,30.15,North,0,0.0,0.0,80,0.00,,,0.00,WUHU21623XXSP,2013-11-07 02:54:00,
2013-11-06 20:59:00,31.6,26.2,30.15,North,0,0.0,0.0,80,0.00,,,0.00,WUHU21623XXSP,2013-11-07 02:59:00,
2013-11-06 21:04:00,31.6,26.2,30.16,North,0,0.0,0.0,80,0.00,,,0.00,WUHU21623XXSP,2013-11-07 03:04:00,
2013-11-06 21:09:00,31.5,26.1,30.16,North,0,0.0,0.0,80,0.00,,,0.00,WUHU21623XXSP,2013-11-07 03:09:00,
2013-11-06 21:14:00,31.3,26.2,30.16,North,0,0.0,0.0,81,0.00,,,0.00,WUHU21623XXSP,2013-11-07 03:14:00,
2013-11-06 21:19:00,31.3,26.2,30.16,North,0,0.0,0.0,81,0.00,,,0.00,WUHU21623XXSP,2013-11-07 03:19:00,
2013-11-06 21:24:00,31.1,26.0,30.16,North,0,0.0,0.0,81,0.00,,,0.00,WUHU21623XXSP,2013-11-07 03:24:00,
2013-11-06 21:29:00,30.9,25.8,30.16,North,0,0.0,0.0,81,0.00,,,0.00,WUHU21623XXSP,2013-11-07 03:29:00,
2013-11-06 21:34:00,30.9,25.8,30.17,North,0,0.0,0.0,81,0.00,,,0.00,WUHU21623XXSP,2013-11-07 03:34:00,
2013-11-06 21:39:00,30.7,25.6,30.16,North,0,0.0,0.0,81,0.00,,,0.00,WUHU21623XXSP,2013-11-07 03:39:00,
2013-11-06 21:44:00,30.6,25.4,30.17,North,0,0.0,0.0,81,0.00,,,0.00,WUHU21623XXSP,2013-11-07 03:44:00,
2013-11-06 21:49:00,30.4,25.3,30.17,North,0,0.0,0.0,81,0.00,,,0.00,WUHU21623XXSP,2013-11-07 03:49:00,
2013-11-06 21:54:00,30.4,25.3,30.17,North,0,0.0,0.0,81,0.00,,,0.00,WUHU21623XXSP,2013-11-07 03:54:00,
2013-11-06 21:59:00,30.2,25.1,30.17,North,0,0.0,0.0,81,0.00,,,0.00,WUHU21623XXSP,2013-11-07 03:59:00,
2013-11-06 22:04:00,30.2,25.1,30.17,North,0,0.0,0.0,81,0.00,,,0.00,WUHU21623XXSP,2013-11-07 04:04:00,
2013-11-06 22:09:00,30.2,25.1,30.17,North,0,0.0,0.0,81,0.00,,,0.00,WUHU21623XXSP,2013-11-07 04:09:00,
2013-11-06 22:14:00,30.0,25.2,30.17,North,0,0.0,0.0,82,0.00,,,0.00,WUHU21623XXSP,2013-11-07 04:14:00,
2013-11-06 22:19:00,30.0,24.9,30.17,North,0,0.0,0.0,81,0.00,,,0.00,WUHU21623XXSP,2013-11-07 04:19:00,
2013-11-06 22:24:00,29.8,25.0,30.17,North,0,0.0,0.0,82,0.00,,,0.00,WUHU21623XXSP,2013-11-07 04:24:00,
2013-11-06 22:29:00,29.7,24.8,30.17,North,0,0.0,0.0,82,0.00,,,0.00,WUHU21623XXSP,2013-11-07 04:29:00,
2013-11-06 22:34:00,29.5,24.7,30.17,North,0,0.0,0.0,82,0.00,,,0.00,WUHU21623XXSP,2013-11-07 04:34:00,
2013-11-06 22:39:00,29.5,24.7,30.17,North,0,0.0,0.0,82,0.00,,,0.00,WUHU21623XXSP,2013-11-07 04:39:00,
2013-11-06 22:44:00,29.3,24.5,30.17,North,0,0.0,0.0,82,0.00,,,0.00,WUHU21623XXSP,2013-11-07 04:44:00,
2013-11-06 22:49:00,28.9,24.1,30.17,North,0,0.0,0.0,82,0.00,,,0.00,WUHU21623XXSP,2013-11-07 04:49:00,
2013-11-06 22:54:00,28.8,24.2,30.17,North,0,0.0,0.0,83,0.00,,,0.00,WUHU21623XXSP,2013-11-07 04:54:00,
2013-11-06 22:59:00,28.6,24.0,30.17,North,0,0.0,0.0,83,0.00,,,0.00,WUHU21623XXSP,2013-11-07 04:59:00,
2013-11-06 23:01:00,28.6,24.0,30.17,North,0,0.0,0.0,83,0.00,,,0.00,WUHU21623XXSP,2013-11-07 05:01:00,
2013-11-06 23:06:00,28.6,24.0,30.17,North,0,0.0,0.0,83,0.00,,,0.00,WUHU21623XXSP,2013-11-07 05:06:00,
2013-11-06 23:11:00,28.6,24.0,30.17,North,0,0.0,0.0,83,0.00,,,0.00,WUHU21623XXSP,2013-11-07 05:11:00,
2013-11-06 23:16:00,28.2,23.7,30.17,North,0,0.0,0.0,83,0.00,,,0.00,WUHU21623XXSP,2013-11-07 05:16:00,
2013-11-06 23:21:00,28.2,23.7,30.17,North,0,0.0,0.0,83,0.00,,,0.00,WUHU21623XXSP,2013-11-07 05:21:00,
2013-11-06 23:26:00,28.2,23.7,30.17,North,0,0.0,0.0,83,0.00,,,0.00,WUHU21623XXSP,2013-11-07 05:26:00,
2013-11-06 23:31:00,28.0,23.8,30.17,North,0,0.0,0.0,84,0.00,,,0.00,WUHU21623XXSP,2013-11-07 05:31:00,
2013-11-06 23:36:00,28.0,23.8,30.17,North,0,0.0,0.0,84,0.00,,,0.00,WUHU21623XXSP,2013-11-07 05:36:00,
2013-11-06 23:41:00,28.0,23.8,30.17,North,0,0.0,0.0,84,0.00,,,0.00,WUHU21623XXSP,2013-11-07 05:41:00,
2013-11-06 23:46:00,27.7,23.4,30.17,North,0,0.0,0.0,84,0.00,,,0.00,WUHU21623XXSP,2013-11-07 05:46:00,
2013-11-06 23:51:00,27.7,23.4,30.17,North,0,0.0,0.0,84,0.00,,,0.00,WUHU21623XXSP,2013-11-07 05:51:00,
2013-11-06 23:56:00,27.5,23.3,30.17,North,0,0.0,0.0,84,0.00,,,0.00,WUHU21623XXSP,2013-11-07 05:56:00,